Time;durP1;ratioP1;P1;durP2;ratioP2;P2;SDS_P1;SDS_P2;PMS_P1;PMS_P2;Temp;Humidity;BMP_temperature;BMP_pressure;BME280_temperature;BME280_humidity;BME280_pressure;Samples;Min_cycle;Max_cycle;Signal;HPM_P1;HPM_P2
2021/12/18 00:00:34;;;;;;;19.10;5.00;;;5.70;99.90;;;;;;4960878;28;20058;-86
2021/12/18 00:03:01;;;;;;;16.30;5.40;;;5.70;99.90;;;;;;4960568;28;20059;-85
2021/12/18 00:05:27;;;;;;;12.32;5.22;;;5.80;99.90;;;;;;4960929;29;20059;-87
2021/12/18 00:07:52;;;;;;;11.23;5.20;;;5.80;99.90;;;;;;4959830;28;20012;-86
2021/12/18 00:10:23;;;;;;;14.55;5.75;;;5.80;99.90;;;;;;4961457;28;20047;-87
2021/12/18 00:12:53;;;;;;;13.18;5.60;;;5.80;99.90;;;;;;4959415;29;20046;-85
2021/12/18 00:15:20;;;;;;;11.45;5.00;;;5.80;99.90;;;;;;4959747;28;20056;-86
2021/12/18 00:17:46;;;;;;;11.32;5.70;;;5.80;99.90;;;;;;4948740;29;20050;-86
2021/12/18 00:20:16;;;;;;;9.30;5.10;;;5.80;99.90;;;;;;4950127;29;20028;-87
2021/12/18 00:22:43;;;;;;;15.27;5.60;;;5.80;99.90;;;;;;4945734;29;20036;-86
2021/12/18 00:25:09;;;;;;;15.95;5.88;;;5.80;99.90;;;;;;4949731;29;20023;-86
2021/12/18 00:27:36;;;;;;;15.27;5.85;;;5.80;99.90;;;;;;4948466;29;20485;-86
2021/12/18 00:30:03;;;;;;;11.40;5.57;;;5.80;99.90;;;;;;4952217;29;20047;-86
2021/12/18 00:32:29;;;;;;;16.45;6.30;;;5.80;99.90;;;;;;4961540;28;20063;-84
2021/12/18 00:34:54;;;;;;;10.90;5.18;;;5.80;99.90;;;;;;4961668;28;20048;-84
2021/12/18 00:37:20;;;;;;;15.32;5.88;;;5.80;99.90;;;;;;4958108;28;20131;-84
2021/12/18 00:39:55;;;;;;;14.98;5.35;;;5.80;99.90;;;;;;4954101;28;20028;-85
2021/12/18 00:45:06;;;;;;;10.32;5.93;;;5.80;99.90;;;;;;4961005;28;20051;-86
2021/12/18 00:47:32;;;;;;;10.73;5.53;;;5.80;99.90;;;;;;4953259;28;20024;-85
2021/12/18 00:49:58;;;;;;;12.85;6.20;;;5.70;99.90;;;;;;4946004;29;20032;-85
2021/12/18 00:52:24;;;;;;;12.52;5.47;;;5.70;99.90;;;;;;4955351;29;20027;-84
2021/12/18 00:54:50;;;;;;;16.35;6.45;;;5.70;99.90;;;;;;4959347;29;20204;-84
2021/12/18 00:57:16;;;;;;;13.32;6.30;;;5.70;99.90;;;;;;4957206;29;20024;-85
2021/12/18 00:59:42;;;;;;;16.83;6.75;;;5.70;99.90;;;;;;4957329;29;20129;-86
2021/12/18 01:02:08;;;;;;;12.48;5.68;;;5.70;99.90;;;;;;4953227;29;20055;-85
2021/12/18 01:04:34;;;;;;;14.02;6.00;;;5.70;99.90;;;;;;4954445;29;20083;-86
2021/12/18 01:07:03;;;;;;;14.05;5.68;;;5.70;99.90;;;;;;4957399;29;20023;-85
2021/12/18 01:12:10;;;;;;;13.90;6.00;;;5.70;99.90;;;;;;4952406;29;20067;-86
2021/12/18 01:14:52;;;;;;;13.23;5.35;;;5.70;99.90;;;;;;4933795;29;20032;-86
2021/12/18 01:25:20;;;;;;;11.25;6.03;;;5.70;99.90;;;;;;4960325;29;20036;-86
2021/12/18 01:27:46;;;;;;;16.02;6.18;;;5.70;99.90;;;;;;4959200;29;20040;-84
2021/12/18 01:30:14;;;;;;;16.55;5.57;;;5.60;99.90;;;;;;5034400;23;20043;-87
2021/12/18 01:32:40;;;;;;;16.98;6.05;;;5.70;99.90;;;;;;5003144;28;20023;-87
2021/12/18 01:35:07;;;;;;;15.20;5.97;;;5.70;99.90;;;;;;5003197;28;20019;-86
2021/12/18 01:37:33;;;;;;;13.68;6.05;;;5.70;99.90;;;;;;5002505;28;20047;-86
2021/12/18 01:39:58;;;;;;;18.38;6.13;;;5.70;99.90;;;;;;5003167;28;20075;-86
2021/12/18 01:45:20;;;;;;;16.33;6.35;;;5.70;99.90;;;;;;5002323;28;20035;-86
2021/12/18 01:53:18;;;;;;;14.73;5.78;;;5.80;99.90;;;;;;5000530;28;20031;-86
2021/12/18 01:55:44;;;;;;;13.98;6.20;;;5.70;99.90;;;;;;5000847;28;20026;-84
2021/12/18 01:58:10;;;;;;;14.45;6.30;;;5.70;99.90;;;;;;5001033;28;20090;-86
2021/12/18 02:00:42;;;;;;;17.40;6.80;;;5.80;99.90;;;;;;5002228;28;20042;-86
2021/12/18 02:03:08;;;;;;;14.45;6.32;;;5.70;99.90;;;;;;5002067;28;20030;-84
2021/12/18 02:05:35;;;;;;;14.95;5.82;;;5.80;99.90;;;;;;5001398;28;20011;-86
2021/12/18 02:08:01;;;;;;;16.98;5.43;;;5.80;99.90;;;;;;5002165;28;20035;-86
2021/12/18 02:10:30;;;;;;;16.15;6.05;;;5.80;99.90;;;;;;4985546;28;20019;-87
2021/12/18 02:13:19;;;;;;;14.68;5.50;;;5.80;99.90;;;;;;5001598;28;20022;-87
2021/12/18 02:21:18;;;;;;;18.30;5.80;;;5.80;99.90;;;;;;5002318;28;20042;-86
2021/12/18 02:23:45;;;;;;;10.75;4.90;;;5.80;99.90;;;;;;4985161;28;20035;-86
2021/12/18 02:26:11;;;;;;;15.43;6.65;;;5.80;99.90;;;;;;5001709;28;20015;-87
2021/12/18 02:28:39;;;;;;;18.73;6.68;;;5.80;99.90;;;;;;5001524;28;20257;-86
2021/12/18 02:31:05;;;;;;;15.73;6.55;;;5.80;99.90;;;;;;5000915;28;20026;-85
2021/12/18 02:33:31;;;;;;;12.82;6.07;;;5.80;99.90;;;;;;5001422;28;20019;-86
2021/12/18 02:35:58;;;;;;;15.63;6.05;;;5.80;99.90;;;;;;4984063;28;20027;-87
2021/12/18 02:39:25;;;;;;;13.55;5.85;;;5.80;99.90;;;;;;5000870;28;20066;-85
2021/12/18 02:41:35;;;;;;;;;;;5.80;99.90;;;;;;4979016;28;20050;-84
2021/12/18 02:44:07;;;;;;;14.27;5.88;;;5.80;99.90;;;;;;4985716;28;19925;-86
2021/12/18 02:46:33;;;;;;;17.95;5.57;;;5.80;99.90;;;;;;4987114;28;20031;-85
2021/12/18 02:49:09;;;;;;;12.43;5.43;;;5.80;99.90;;;;;;4985761;28;20363;-86
2021/12/18 02:51:35;;;;;;;15.55;6.10;;;5.80;99.90;;;;;;4984454;28;20030;-85
2021/12/18 02:54:01;;;;;;;9.52;5.72;;;5.80;99.90;;;;;;4984393;28;20026;-85
2021/12/18 02:56:27;;;;;;;20.30;6.32;;;5.80;99.90;;;;;;4987254;28;20031;-87
2021/12/18 02:59:00;;;;;;;12.95;6.25;;;5.80;99.90;;;;;;4987623;28;20035;-86
2021/12/18 03:01:27;;;;;;;12.02;5.95;;;5.80;99.90;;;;;;4988418;28;20033;-84
2021/12/18 03:03:55;;;;;;;15.45;6.53;;;5.80;99.90;;;;;;4990174;28;20121;-85
2021/12/18 03:06:29;;;;;;;15.63;6.25;;;5.70;99.90;;;;;;4990379;28;20039;-85
2021/12/18 03:25:11;;;;;;;11.93;5.68;;;5.70;99.90;;;;;;4996838;28;20046;-85
2021/12/18 03:27:37;;;;;;;;;;;5.80;99.90;;;;;;5001020;28;20047;-86
2021/12/18 03:30:04;;;;;;;13.80;5.97;;;5.80;99.90;;;;;;4983546;28;19933;-85
2021/12/18 03:32:30;;;;;;;15.80;7.03;;;5.80;99.90;;;;;;4999827;28;20035;-84
2021/12/18 03:34:56;;;;;;;17.67;7.22;;;5.80;99.90;;;;;;4999075;28;20057;-87
2021/12/18 03:37:21;;;;;;;17.20;6.78;;;5.70;99.90;;;;;;4998629;28;20098;-86
2021/12/18 03:39:49;;;;;;;13.57;6.80;;;5.80;99.90;;;;;;4997614;28;20058;-85
2021/12/18 03:42:17;;;;;;;16.05;6.78;;;5.70;99.90;;;;;;4997234;28;20035;-84
2021/12/18 03:44:43;;;;;;;15.95;6.10;;;5.70;99.90;;;;;;4997977;28;20031;-85
2021/12/18 03:47:09;;;;;;;16.50;7.15;;;5.70;99.90;;;;;;4998182;28;20049;-85
2021/12/18 03:49:34;;;;;;;14.15;6.43;;;5.80;99.90;;;;;;4998932;28;20058;-86
2021/12/18 03:52:00;;;;;;;13.07;6.82;;;5.80;99.90;;;;;;4998993;28;20031;-85
2021/12/18 03:54:26;;;;;;;17.88;6.85;;;5.80;99.90;;;;;;5000091;28;20026;-84
2021/12/18 03:56:53;;;;;;;13.55;6.30;;;5.80;99.90;;;;;;4999542;28;20035;-86
2021/12/18 03:59:19;;;;;;;23.52;6.68;;;5.70;99.90;;;;;;4999166;28;20031;-85
2021/12/18 04:01:45;;;;;;;16.75;7.03;;;5.70;99.90;;;;;;4993777;28;20019;-84
2021/12/18 04:04:11;;;;;;;17.83;6.70;;;5.70;99.90;;;;;;4987490;28;20038;-86
2021/12/18 04:06:38;;;;;;;14.52;6.95;;;5.70;99.90;;;;;;4985826;28;20037;-85
2021/12/18 04:09:04;;;;;;;17.15;6.55;;;5.70;99.90;;;;;;4969381;28;20030;-86
2021/12/18 04:11:30;;;;;;;16.85;7.15;;;5.70;99.90;;;;;;4986323;28;20026;-86
2021/12/18 04:13:56;;;;;;;17.52;7.28;;;5.60;99.90;;;;;;4986121;28;20034;-85
2021/12/18 04:16:22;;;;;;;19.88;6.82;;;5.60;99.90;;;;;;4987598;28;20042;-86
2021/12/18 04:18:48;;;;;;;15.60;7.38;;;5.60;99.90;;;;;;4987099;28;20110;-85
2021/12/18 04:21:14;;;;;;;15.05;6.65;;;5.60;99.90;;;;;;4987262;28;20395;-86
2021/12/18 04:23:40;;;;;;;17.55;7.75;;;5.60;99.90;;;;;;4986432;28;20030;-85
2021/12/18 04:26:06;;;;;;;17.85;7.35;;;5.60;99.90;;;;;;4988433;28;20026;-86
2021/12/18 04:28:32;;;;;;;21.60;7.32;;;5.50;99.90;;;;;;4990138;28;20114;-86
2021/12/18 04:30:57;;;;;;;13.60;7.13;;;5.60;99.90;;;;;;4990987;28;20045;-84
2021/12/18 04:33:23;;;;;;;15.50;7.50;;;5.50;99.90;;;;;;4991559;28;20033;-85
2021/12/18 04:35:49;;;;;;;15.82;7.75;;;5.50;99.90;;;;;;4986525;28;20062;-86
2021/12/18 04:38:15;;;;;;;17.70;7.63;;;5.50;99.90;;;;;;4987433;28;20383;-85
2021/12/18 04:40:43;;;;;;;14.02;6.40;;;5.50;99.90;;;;;;4985962;28;20118;-86
2021/12/18 04:43:09;;;;;;;18.17;7.70;;;5.50;99.90;;;;;;4973281;28;20057;-85
2021/12/18 04:45:35;;;;;;;17.90;8.05;;;5.50;99.90;;;;;;4989968;28;20041;-84
2021/12/18 04:48:02;;;;;;;19.85;8.30;;;5.50;99.90;;;;;;4988078;28;20023;-86
2021/12/18 04:50:27;;;;;;;19.83;8.55;;;5.50;99.90;;;;;;4987180;28;20034;-85
2021/12/18 04:52:53;;;;;;;19.02;8.52;;;5.50;99.90;;;;;;4995415;28;20030;-85
2021/12/18 04:55:19;;;;;;;19.08;7.88;;;5.50;99.90;;;;;;4998284;28;20035;-86
2021/12/18 04:57:45;;;;;;;19.35;9.10;;;5.50;99.90;;;;;;4996936;28;20027;-85
2021/12/18 05:00:15;;;;;;;23.58;8.85;;;5.40;99.90;;;;;;4997691;28;20027;-86
2021/12/18 05:02:43;;;;;;;21.77;8.55;;;5.50;99.90;;;;;;4998371;28;20035;-86
2021/12/18 05:05:12;;;;;;;20.05;9.07;;;5.50;99.90;;;;;;4999275;28;20022;-85
2021/12/18 05:07:38;;;;;;;16.98;8.68;;;5.50;99.90;;;;;;4998550;28;20022;-85
2021/12/18 05:10:07;;;;;;;19.73;8.88;;;5.50;99.90;;;;;;4999331;28;20015;-84
2021/12/18 05:12:33;;;;;;;23.55;10.30;;;5.50;99.90;;;;;;4998706;28;20872;-86
2021/12/18 05:14:59;;;;;;;27.08;11.82;;;5.50;99.90;;;;;;4993680;28;20027;-85
2021/12/18 05:17:25;;;;;;;29.35;13.10;;;5.40;99.90;;;;;;4988542;28;20098;-86
2021/12/18 05:19:51;;;;;;;23.40;12.02;;;5.30;99.90;;;;;;4986692;28;20027;-85
2021/12/18 05:22:16;;;;;;;24.90;12.07;;;5.20;99.90;;;;;;4986268;28;20027;-85
2021/12/18 05:24:42;;;;;;;27.38;12.77;;;5.20;99.90;;;;;;4989355;28;20039;-85
2021/12/18 05:27:08;;;;;;;30.08;15.02;;;5.20;99.90;;;;;;4987388;28;20023;-86
2021/12/18 05:29:34;;;;;;;25.20;12.05;;;5.20;99.90;;;;;;4988792;28;20037;-85
2021/12/18 05:32:00;;;;;;;32.72;15.05;;;5.20;99.90;;;;;;4988626;28;20019;-87
2021/12/18 05:34:32;;;;;;;29.90;14.15;;;5.10;99.90;;;;;;4987540;28;20022;-87
2021/12/18 05:39:28;;;;;;;34.70;14.45;;;5.20;99.90;;;;;;4992008;28;20031;-84
2021/12/18 05:41:56;;;;;;;32.25;13.80;;;5.20;99.90;;;;;;4991873;28;20023;-84
2021/12/18 05:44:24;;;;;;;31.20;13.85;;;5.20;99.90;;;;;;4993038;28;20053;-85
2021/12/18 05:46:50;;;;;;;24.45;13.23;;;5.10;99.90;;;;;;4992383;28;20503;-86
2021/12/18 05:49:16;;;;;;;28.73;14.35;;;5.10;99.90;;;;;;4994439;28;20121;-85
2021/12/18 05:51:43;;;;;;;26.40;12.48;;;5.20;99.90;;;;;;4991086;28;20071;-85
2021/12/18 05:54:10;;;;;;;28.05;12.80;;;5.20;99.90;;;;;;4989648;28;20031;-88
2021/12/18 05:56:36;;;;;;;28.02;13.10;;;5.20;99.90;;;;;;4985804;28;20038;-87
2021/12/18 05:59:03;;;;;;;27.63;13.75;;;5.20;99.90;;;;;;4989459;28;20035;-85
2021/12/18 06:01:29;;;;;;;29.30;12.80;;;5.20;99.90;;;;;;4992552;28;20035;-85
2021/12/18 06:03:56;;;;;;;27.20;12.77;;;5.20;99.90;;;;;;4995243;28;20042;-85
2021/12/18 06:06:22;;;;;;;26.88;12.50;;;5.20;99.90;;;;;;4995123;28;20038;-85
2021/12/18 06:08:49;;;;;;;23.23;12.48;;;5.20;99.90;;;;;;4990896;28;20027;-85
2021/12/18 06:11:17;;;;;;;29.95;13.00;;;5.10;99.90;;;;;;4988738;28;20023;-85
2021/12/18 06:13:48;;;;;;;24.88;12.45;;;5.20;99.90;;;;;;4972538;28;20034;-86
2021/12/18 06:16:15;;;;;;;26.27;12.15;;;5.20;99.90;;;;;;4987682;28;20070;-84
2021/12/18 06:18:47;;;;;;;26.35;12.85;;;5.20;99.90;;;;;;4986088;28;20023;-86
2021/12/18 06:21:15;;;;;;;24.08;11.90;;;5.20;99.90;;;;;;4988723;28;20501;-86
2021/12/18 06:23:41;;;;;;;25.48;12.10;;;5.20;99.90;;;;;;4986737;28;20045;-87
2021/12/18 06:26:07;;;;;;;22.83;11.40;;;5.10;99.90;;;;;;4988521;28;20035;-86
2021/12/18 06:28:33;;;;;;;24.45;11.57;;;5.10;99.90;;;;;;4996229;28;20033;-87
2021/12/18 06:31:00;;;;;;;22.35;11.07;;;5.20;99.90;;;;;;4987912;28;20027;-85
2021/12/18 06:33:26;;;;;;;21.55;11.27;;;5.20;99.90;;;;;;4986285;28;20118;-87
2021/12/18 06:35:52;;;;;;;26.10;11.52;;;5.20;99.90;;;;;;4993595;28;20058;-86
2021/12/18 06:38:18;;;;;;;21.92;11.82;;;5.30;99.90;;;;;;4985086;28;20035;-87
2021/12/18 06:40:43;;;;;;;23.25;10.98;;;5.30;99.90;;;;;;4986221;28;20098;-86
2021/12/18 06:43:09;;;;;;;22.63;10.82;;;5.30;99.90;;;;;;4987374;28;20023;-85
2021/12/18 06:45:35;;;;;;;27.13;10.85;;;5.40;99.90;;;;;;4986032;28;20031;-86
2021/12/18 06:48:01;;;;;;;23.58;10.68;;;5.30;99.90;;;;;;4987174;28;20071;-86
2021/12/18 06:50:27;;;;;;;24.17;10.90;;;5.30;99.90;;;;;;4985526;28;20081;-86
2021/12/18 06:52:53;;;;;;;22.67;10.15;;;5.40;99.90;;;;;;4994593;28;20023;-87
2021/12/18 06:55:19;;;;;;;22.90;9.50;;;5.40;99.90;;;;;;4992545;28;20030;-86
2021/12/18 06:57:45;;;;;;;22.70;9.30;;;5.40;99.90;;;;;;4987870;28;20042;-86
2021/12/18 07:00:13;;;;;;;21.98;10.23;;;5.40;99.90;;;;;;4989075;28;20026;-86
2021/12/18 07:02:40;;;;;;;23.52;10.18;;;5.40;99.90;;;;;;4992424;28;20035;-88
2021/12/18 07:05:07;;;;;;;23.92;11.55;;;5.40;99.90;;;;;;4989125;28;20399;-88
2021/12/18 07:07:35;;;;;;;21.33;10.80;;;5.40;99.90;;;;;;4994847;28;20200;-85
2021/12/18 07:10:08;;;;;;;29.25;11.40;;;5.30;99.90;;;;;;4990070;28;20106;-86
2021/12/18 07:12:34;;;;;;;23.30;10.73;;;5.40;99.90;;;;;;4991582;28;20030;-87
2021/12/18 07:15:01;;;;;;;25.60;11.15;;;5.40;99.90;;;;;;4987368;28;20098;-86
2021/12/18 07:17:27;;;;;;;23.38;11.13;;;5.30;99.90;;;;;;4984618;28;20027;-88
2021/12/18 07:19:52;;;;;;;25.95;11.90;;;5.30;99.90;;;;;;4983454;28;20085;-87
2021/12/18 07:22:18;;;;;;;22.88;11.20;;;5.30;99.90;;;;;;4983508;28;20026;-86
2021/12/18 07:24:44;;;;;;;23.63;11.15;;;5.30;99.90;;;;;;4989286;28;20057;-89
2021/12/18 07:27:10;;;;;;;19.13;10.50;;;5.30;99.90;;;;;;4988753;28;20031;-86
2021/12/18 07:29:35;;;;;;;24.10;10.65;;;5.30;99.90;;;;;;5011522;23;20039;-84
2021/12/18 07:32:01;;;;;;;22.67;10.25;;;5.30;99.90;;;;;;5019496;28;20095;-83
2021/12/18 07:34:27;;;;;;;21.42;10.73;;;5.40;99.90;;;;;;5019473;28;20007;-82
2021/12/18 07:36:53;;;;;;;20.58;10.45;;;5.40;99.90;;;;;;5019694;28;20018;-83
2021/12/18 07:39:19;;;;;;;29.88;12.70;;;5.40;99.90;;;;;;5019373;28;20045;-83
2021/12/18 07:41:47;;;;;;;27.65;12.70;;;5.50;99.90;;;;;;5019377;28;20033;-84
2021/12/18 07:44:13;;;;;;;30.92;13.27;;;5.50;99.90;;;;;;5019278;28;20034;-83
2021/12/18 07:46:39;;;;;;;30.02;12.88;;;5.40;99.90;;;;;;5018525;28;20011;-83
2021/12/18 07:49:07;;;;;;;26.90;12.27;;;5.50;99.90;;;;;;5018541;28;20018;-82
2021/12/18 07:51:33;;;;;;;23.35;12.10;;;5.60;99.90;;;;;;5019698;28;20023;-82
2021/12/18 07:53:59;;;;;;;29.30;12.30;;;5.60;99.90;;;;;;5019223;28;20049;-84
2021/12/18 07:56:25;;;;;;;29.33;12.30;;;5.50;99.90;;;;;;5019455;28;20034;-88
2021/12/18 07:58:53;;;;;;;34.30;15.32;;;5.50;99.90;;;;;;5018978;28;20049;-84
2021/12/18 08:01:20;;;;;;;27.67;14.10;;;5.50;99.90;;;;;;5018668;28;20016;-87
2021/12/18 08:03:45;;;;;;;27.75;12.20;;;5.40;99.90;;;;;;5004880;28;20031;-85
2021/12/18 08:06:11;;;;;;;24.17;11.50;;;5.30;99.90;;;;;;5000075;28;20060;-84
2021/12/18 08:08:37;;;;;;;27.10;12.52;;;5.40;99.90;;;;;;5000227;28;20023;-88
2021/12/18 08:11:05;;;;;;;22.42;11.23;;;5.40;99.90;;;;;;4999075;28;20027;-87
2021/12/18 08:13:30;;;;;;;26.83;11.35;;;5.40;99.90;;;;;;4997780;28;20089;-88
2021/12/18 08:15:56;;;;;;;29.92;12.35;;;5.40;99.90;;;;;;4998058;28;20038;-84
2021/12/18 08:18:23;;;;;;;25.30;11.60;;;5.50;99.90;;;;;;5017617;28;20014;-86
2021/12/18 08:20:49;;;;;;;23.55;11.27;;;5.50;99.90;;;;;;5010196;28;20037;-87
2021/12/18 08:23:15;;;;;;;26.15;12.10;;;5.60;99.90;;;;;;5009645;28;20031;-86
2021/12/18 08:25:41;;;;;;;24.30;11.02;;;5.80;99.90;;;;;;5016116;28;20037;-85
2021/12/18 08:28:07;;;;;;;23.85;11.75;;;6.00;99.90;;;;;;5016722;28;20029;-85
2021/12/18 08:30:38;;;;;;;25.48;11.10;;;6.30;99.90;;;;;;5002388;28;20073;-87
2021/12/18 08:33:05;;;;;;;23.85;10.88;;;6.40;99.90;;;;;;4997335;28;20018;-86
2021/12/18 08:35:32;;;;;;;18.55;9.20;;;6.40;99.90;;;;;;4980785;28;20027;-86
2021/12/18 08:37:59;;;;;;;20.45;10.13;;;6.50;99.90;;;;;;4994617;28;20043;-86
2021/12/18 08:40:25;;;;;;;21.83;10.05;;;6.70;99.90;;;;;;4997803;28;20035;-85
2021/12/18 08:42:52;;;;;;;20.65;10.02;;;6.80;99.90;;;;;;4997904;28;20027;-84
2021/12/18 08:45:18;;;;;;;17.83;8.65;;;6.80;99.90;;;;;;4998016;28;20019;-84
2021/12/18 08:47:44;;;;;;;18.60;8.60;;;6.90;99.90;;;;;;4998827;28;20019;-86
2021/12/18 08:50:13;;;;;;;18.25;7.90;;;7.40;99.90;;;;;;4998074;28;20041;-86
2021/12/18 08:52:41;;;;;;;17.48;8.32;;;7.50;99.90;;;;;;4997820;28;20031;-81
2021/12/18 08:55:07;;;;;;;17.63;7.90;;;7.60;99.90;;;;;;4997659;28;20046;-86
2021/12/18 08:57:33;;;;;;;19.73;8.43;;;7.70;99.90;;;;;;4995782;28;20031;-89
2021/12/18 08:59:59;;;;;;;16.40;8.73;;;7.70;99.90;;;;;;4997616;28;20066;-86
2021/12/18 09:02:24;;;;;;;20.70;8.98;;;8.20;99.90;;;;;;4994684;28;20025;-86
2021/12/18 09:04:51;;;;;;;21.50;9.27;;;9.20;99.90;;;;;;4995504;28;20019;-88
2021/12/18 09:07:18;;;;;;;22.08;10.05;;;10.30;99.90;;;;;;4995179;28;20050;-85
2021/12/18 09:09:44;;;;;;;17.75;9.68;;;11.10;99.90;;;;;;4996334;28;20031;-86
2021/12/18 09:12:11;;;;;;;21.92;10.98;;;11.60;99.90;;;;;;4996429;28;20092;-86
2021/12/18 09:14:38;;;;;;;17.35;8.10;;;12.00;99.90;;;;;;4997063;28;20063;-86
2021/12/18 09:17:05;;;;;;;18.30;9.05;;;12.70;98.30;;;;;;4997375;28;20086;-86
2021/12/18 09:19:30;;;;;;;17.08;8.30;;;13.30;97.10;;;;;;4996152;28;20015;-85
2021/12/18 09:21:58;;;;;;;13.30;6.68;;;13.80;95.60;;;;;;4995593;28;20027;-86
2021/12/18 09:24:24;;;;;;;12.27;6.30;;;13.90;94.30;;;;;;4997526;28;20035;-85
2021/12/18 09:26:51;;;;;;;11.85;6.80;;;13.20;94.10;;;;;;4994918;28;20061;-85
2021/12/18 09:29:18;;;;;;;12.15;6.50;;;13.30;94.40;;;;;;4996455;28;20022;-85
2021/12/18 09:31:45;;;;;;;12.13;6.60;;;13.80;93.60;;;;;;4996419;28;20033;-87
2021/12/18 09:34:11;;;;;;;14.00;7.18;;;13.90;93.00;;;;;;4996997;28;20022;-85
2021/12/18 09:36:37;;;;;;;15.90;8.07;;;13.90;93.00;;;;;;4997146;28;20027;-86
2021/12/18 09:39:04;;;;;;;12.90;6.60;;;14.40;92.50;;;;;;4996470;28;20026;-84
2021/12/18 09:41:31;;;;;;;15.55;7.28;;;14.50;91.70;;;;;;4997182;28;20034;-85
2021/12/18 09:43:57;;;;;;;15.35;7.93;;;14.50;91.90;;;;;;4998641;28;20062;-83
2021/12/18 09:46:22;;;;;;;15.02;7.03;;;14.40;91.70;;;;;;5001540;28;20023;-85
2021/12/18 09:48:48;;;;;;;12.02;6.65;;;14.40;91.50;;;;;;5001703;28;20070;-84
2021/12/18 09:51:27;;;;;;;12.05;6.93;;;13.90;91.60;;;;;;5000577;28;20042;-85
2021/12/18 09:53:55;;;;;;;20.08;7.28;;;13.80;91.90;;;;;;5001417;28;20083;-85
2021/12/18 09:56:23;;;;;;;16.98;6.55;;;14.30;91.60;;;;;;5001498;28;20019;-86
2021/12/18 09:58:49;;;;;;;19.48;7.05;;;14.50;91.10;;;;;;5001255;28;20081;-84
2021/12/18 10:01:15;;;;;;;12.43;6.50;;;14.90;90.60;;;;;;5000324;28;20019;-84
2021/12/18 10:03:57;;;;;;;13.85;6.60;;;15.30;90.20;;;;;;5000746;28;20038;-85
2021/12/18 10:06:37;;;;;;;16.10;6.32;;;15.70;88.50;;;;;;5000424;28;20022;-86
2021/12/18 10:09:18;;;;;;;11.93;6.40;;;16.00;88.10;;;;;;4999015;28;20023;-87
2021/12/18 10:11:45;;;;;;;10.80;6.53;;;16.00;87.40;;;;;;4997018;28;20050;-87
2021/12/18 10:14:12;;;;;;;11.73;5.88;;;16.40;86.00;;;;;;4997848;28;20018;-86
2021/12/18 10:16:46;;;;;;;13.20;5.93;;;16.00;84.50;;;;;;4998388;28;20538;-86
2021/12/18 10:19:36;;;;;;;11.43;5.82;;;15.70;84.90;;;;;;4997381;28;20086;-85
2021/12/18 10:22:08;;;;;;;8.65;5.53;;;15.70;85.00;;;;;;5000007;28;20046;-84
2021/12/18 10:24:40;;;;;;;14.00;5.50;;;15.50;85.20;;;;;;5001001;28;20041;-86
2021/12/18 10:27:24;;;;;;;10.88;5.40;;;15.50;85.30;;;;;;5000793;28;20033;-85
2021/12/18 10:29:53;;;;;;;11.35;5.22;;;15.70;84.40;;;;;;5000689;28;20034;-84
2021/12/18 10:32:23;;;;;;;11.80;5.85;;;16.50;82.00;;;;;;5000910;28;20041;-83
2021/12/18 10:34:57;;;;;;;10.80;6.28;;;16.80;82.10;;;;;;5000734;28;20038;-84
2021/12/18 10:37:25;;;;;;;10.27;5.03;;;17.30;80.60;;;;;;5000242;28;20082;-84
2021/12/18 10:39:50;;;;;;;10.38;5.55;;;16.90;80.10;;;;;;5000510;28;20050;-86
2021/12/18 10:42:39;;;;;;;6.82;4.63;;;16.80;79.40;;;;;;5000223;28;20046;-84
2021/12/18 10:45:25;;;;;;;12.40;4.93;;;16.50;79.10;;;;;;5000187;28;20034;-85
2021/12/18 10:48:03;;;;;;;9.15;5.22;;;16.10;80.00;;;;;;5000827;28;20033;-83
2021/12/18 10:50:39;;;;;;;7.55;4.50;;;14.90;81.70;;;;;;5000026;28;20043;-83
2021/12/18 10:53:10;;;;;;;10.32;5.63;;;13.50;85.00;;;;;;5000468;28;20015;-84
2021/12/18 10:55:46;;;;;;;9.95;5.07;;;12.50;87.50;;;;;;5000035;28;20030;-83
2021/12/18 10:58:26;;;;;;;10.10;4.55;;;11.60;89.90;;;;;;4983112;28;20050;-86
2021/12/18 11:01:11;;;;;;;11.88;4.57;;;11.10;91.00;;;;;;4999939;28;20025;-84
2021/12/18 11:03:41;;;;;;;11.13;4.45;;;10.90;91.30;;;;;;5000287;28;20134;-85
2021/12/18 11:06:18;;;;;;;13.40;4.90;;;10.80;91.70;;;;;;4999732;28;20015;-86
2021/12/18 11:08:58;;;;;;;11.57;4.47;;;10.70;92.10;;;;;;4999344;28;20042;-86
2021/12/18 11:14:04;;;;;;;11.85;5.72;;;10.30;93.20;;;;;;5000459;28;20090;-85
2021/12/18 11:16:30;;;;;;;13.23;5.75;;;10.10;93.70;;;;;;5000325;28;20074;-83
2021/12/18 11:18:56;;;;;;;12.95;5.45;;;10.10;94.10;;;;;;5000005;28;20030;-84
2021/12/18 11:21:26;;;;;;;10.95;5.40;;;10.00;94.50;;;;;;4999403;28;20086;-84
2021/12/18 11:24:01;;;;;;;13.48;5.40;;;10.00;94.60;;;;;;5000121;28;20035;-83
2021/12/18 11:26:51;;;;;;;14.70;5.15;;;10.00;94.80;;;;;;4998569;28;20059;-86
2021/12/18 11:29:26;;;;;;;10.82;5.63;;;9.80;95.30;;;;;;4990797;28;20035;-85
2021/12/18 11:31:54;;;;;;;17.15;6.05;;;9.50;95.70;;;;;;4994080;28;20061;-86
2021/12/18 11:34:20;;;;;;;19.88;5.82;;;9.30;96.40;;;;;;4991513;28;20034;-87
2021/12/18 11:36:49;;;;;;;15.23;6.40;;;9.00;97.10;;;;;;4991135;28;20031;-87
2021/12/18 11:39:17;;;;;;;13.00;7.03;;;8.60;98.30;;;;;;4992454;28;20019;-85
2021/12/18 11:41:49;;;;;;;19.15;7.53;;;8.30;99.40;;;;;;4996130;28;20029;-86
2021/12/18 11:44:28;;;;;;;17.48;7.10;;;8.30;99.90;;;;;;4995125;28;20035;-87
2021/12/18 11:46:54;;;;;;;16.92;7.25;;;8.40;99.90;;;;;;4998803;28;20023;-84
2021/12/18 11:49:22;;;;;;;19.70;8.32;;;8.50;99.90;;;;;;4982928;28;20033;-85
2021/12/18 11:52:04;;;;;;;14.52;7.43;;;8.70;99.90;;;;;;4998060;28;20047;-87
2021/12/18 11:54:49;;;;;;;16.98;8.13;;;8.50;99.90;;;;;;4996746;28;20022;-84
2021/12/18 11:57:46;;;;;;;14.75;7.85;;;8.50;99.90;;;;;;4998869;28;20062;-83
2021/12/18 12:00:18;;;;;;;13.48;6.93;;;8.40;99.90;;;;;;4996166;28;20023;-86
2021/12/18 12:02:55;;;;;;;14.40;7.85;;;8.40;99.90;;;;;;4992696;28;20031;-86
2021/12/18 12:05:51;;;;;;;19.75;7.85;;;8.40;99.90;;;;;;4993697;28;20050;-87
2021/12/18 12:08:21;;;;;;;15.30;8.15;;;8.50;99.90;;;;;;4991165;28;20050;-87
2021/12/18 12:11:15;;;;;;;14.45;7.65;;;8.60;99.90;;;;;;4992322;28;20073;-87
2021/12/18 12:14:08;;;;;;;21.90;8.10;;;8.70;99.90;;;;;;4989169;28;20041;-87
2021/12/18 12:16:57;;;;;;;16.23;7.70;;;8.70;99.90;;;;;;4988889;28;20027;-88
2021/12/18 12:19:34;;;;;;;15.63;7.72;;;8.70;99.90;;;;;;4987208;28;20085;-87
2021/12/18 12:22:01;;;;;;;15.38;7.68;;;8.70;99.90;;;;;;4989994;28;20545;-87
2021/12/18 12:24:29;;;;;;;15.93;8.52;;;8.80;99.90;;;;;;4973891;28;20103;-87
2021/12/18 12:27:24;;;;;;;14.82;8.07;;;8.90;99.90;;;;;;4989275;28;20034;-86
2021/12/18 12:29:51;;;;;;;14.95;8.07;;;9.00;99.90;;;;;;4988198;28;20097;-87
2021/12/18 12:32:20;;;;;;;18.05;8.45;;;8.90;99.90;;;;;;4989212;28;20023;-87
2021/12/18 12:34:58;;;;;;;17.90;8.73;;;8.90;99.90;;;;;;4988154;28;20039;-88
2021/12/18 12:37:51;;;;;;;15.88;8.02;;;8.80;99.90;;;;;;4988527;28;20479;-88
2021/12/18 12:40:31;;;;;;;15.65;8.35;;;8.70;99.90;;;;;;4988233;28;20106;-86
2021/12/18 12:43:20;;;;;;;17.98;7.93;;;8.60;99.90;;;;;;4989676;28;20031;-86
2021/12/18 12:45:50;;;;;;;15.70;8.80;;;8.50;99.90;;;;;;4990590;28;20093;-87
2021/12/18 12:48:17;;;;;;;16.17;8.07;;;8.30;99.90;;;;;;4989579;28;20086;-85
2021/12/18 12:50:53;;;;;;;16.95;9.05;;;8.30;99.90;;;;;;4988781;28;20085;-86
2021/12/18 12:53:19;;;;;;;16.60;8.23;;;8.20;99.90;;;;;;4988600;28;20041;-87
2021/12/18 12:55:48;;;;;;;14.80;7.97;;;8.10;99.90;;;;;;4987828;28;20043;-87
2021/12/18 12:58:25;;;;;;;14.70;7.57;;;7.90;99.90;;;;;;4984381;28;20130;-85
2021/12/18 13:00:59;;;;;;;16.73;7.88;;;7.90;99.90;;;;;;4983539;28;20444;-87
2021/12/18 13:03:28;;;;;;;16.25;8.70;;;7.70;99.90;;;;;;4983028;28;20043;-88
2021/12/18 13:06:00;;;;;;;17.35;9.00;;;7.70;99.90;;;;;;4984039;28;20057;-88
2021/12/18 13:08:28;;;;;;;20.33;8.48;;;7.70;99.90;;;;;;4991004;28;20034;-85
2021/12/18 13:11:00;;;;;;;18.13;9.48;;;7.80;99.90;;;;;;4989378;28;20102;-87
2021/12/18 13:13:28;;;;;;;17.45;8.65;;;7.80;99.90;;;;;;4982859;28;20030;-88
2021/12/18 13:15:57;;;;;;;16.10;8.55;;;7.80;99.90;;;;;;4980943;28;20102;-87
2021/12/18 13:18:42;;;;;;;17.13;8.60;;;7.60;99.90;;;;;;4983633;28;20031;-87
2021/12/18 13:21:26;;;;;;;18.98;9.32;;;7.40;99.90;;;;;;4988733;28;20562;-86
2021/12/18 13:24:00;;;;;;;19.52;10.23;;;7.20;99.90;;;;;;4990629;28;20057;-86
2021/12/18 13:26:32;;;;;;;16.88;8.23;;;7.20;99.90;;;;;;4991098;28;20105;-88
2021/12/18 13:29:20;;;;;;;18.50;9.15;;;7.10;99.90;;;;;;4991065;28;20035;-86
2021/12/18 13:31:52;;;;;;;14.98;8.40;;;7.20;99.90;;;;;;5043940;23;20026;-81
2021/12/18 13:34:26;;;;;;;17.40;8.48;;;7.10;99.90;;;;;;5017114;28;20022;-81
2021/12/18 13:36:54;;;;;;;17.05;8.63;;;7.00;99.90;;;;;;5017700;28;20022;-82
2021/12/18 13:39:24;;;;;;;17.75;9.55;;;7.10;99.90;;;;;;5017189;28;20014;-83
2021/12/18 13:42:04;;;;;;;17.52;8.55;;;7.10;99.90;;;;;;4996320;28;20046;-84